Time;durP1;ratioP1;P1;durP2;ratioP2;P2;SDS_P1;SDS_P2;PMS_P1;PMS_P2;Temp;Humidity;BMP_temperature;BMP_pressure;BME280_temperature;BME280_humidity;BME280_pressure;Samples;Min_cycle;Max_cycle;Signal;HPM_P1;HPM_P2
2023/08/02 00:00:07;;;;;;;6.35;2.90;;;;;;;14.73;100.00;100010.84;5017153;28;20438;-71
2023/08/02 00:02:37;;;;;;;8.93;2.90;;;;;;;14.70;100.00;100013.91;5007343;28;20041;-71
2023/08/02 00:05:02;;;;;;;11.27;3.40;;;;;;;14.69;100.00;100000.38;5018491;28;20044;-71
2023/08/02 00:07:28;;;;;;;6.97;3.30;;;;;;;14.66;100.00;99995.22;5026475;28;20397;-71
2023/08/02 00:09:53;;;;;;;6.93;3.10;;;;;;;14.64;100.00;100003.59;5024556;28;20074;-70
2023/08/02 00:12:18;;;;;;;9.27;3.25;;;;;;;14.62;100.00;100004.75;5026797;28;20057;-69
2023/08/02 00:14:44;;;;;;;12.07;3.03;;;;;;;14.56;100.00;100002.66;5023986;28;20037;-70
2023/08/02 00:17:09;;;;;;;9.93;3.15;;;;;;;14.54;100.00;100020.09;5027063;28;20129;-70
2023/08/02 00:19:36;;;;;;;6.05;3.25;;;;;;;14.51;100.00;100014.09;5041702;28;20036;-71
2023/08/02 00:22:01;;;;;;;7.20;2.67;;;;;;;14.50;100.00;100012.34;5024089;28;20092;-71
2023/08/02 00:24:26;;;;;;;5.60;2.92;;;;;;;14.49;100.00;100011.47;5025112;28;20041;-70
2023/08/02 00:26:52;;;;;;;8.10;3.00;;;;;;;14.42;100.00;100010.38;5041763;28;20060;-71
2023/08/02 00:29:17;;;;;;;7.50;2.95;;;;;;;14.42;100.00;100004.91;5023016;28;20120;-71
2023/08/02 00:31:42;;;;;;;7.97;3.28;;;;;;;14.37;100.00;100000.91;4989535;28;20065;-72
2023/08/02 00:34:08;;;;;;;7.78;2.75;;;;;;;14.36;100.00;100012.84;5009324;28;20038;-71
2023/08/02 00:36:33;;;;;;;6.55;3.38;;;;;;;14.32;100.00;100001.38;5027656;28;20034;-71
2023/08/02 00:38:59;;;;;;;7.85;3.00;;;;;;;14.30;100.00;99997.94;5028015;28;20037;-70
2023/08/02 00:41:24;;;;;;;6.72;2.67;;;;;;;14.30;100.00;99993.31;5025136;28;20038;-71
2023/08/02 00:43:50;;;;;;;10.35;3.28;;;;;;;14.30;100.00;99978.78;5026996;28;20064;-70
2023/08/02 00:46:18;;;;;;;8.18;3.28;;;;;;;14.32;100.00;99975.91;5025231;28;20042;-71
2023/08/02 00:48:43;;;;;;;8.20;2.55;;;;;;;14.35;100.00;99978.31;5008911;28;20416;-71
2023/08/02 00:51:15;;;;;;;8.95;2.88;;;;;;;14.37;100.00;99974.41;5009596;28;20042;-71
2023/08/02 00:53:44;;;;;;;6.47;3.40;;;;;;;14.43;100.00;99971.03;5014671;28;20033;-70
2023/08/02 00:56:10;;;;;;;6.38;2.90;;;;;;;14.46;100.00;99959.78;5015685;28;20123;-71
2023/08/02 00:58:36;;;;;;;10.10;3.30;;;;;;;14.47;100.00;99942.34;5015225;28;20046;-71
2023/08/02 01:01:07;;;;;;;5.38;2.70;;;;;;;14.48;100.00;99949.56;5010057;28;20049;-71
2023/08/02 01:03:44;;;;;;;4.28;2.80;;;;;;;14.50;100.00;99954.88;5010237;28;20034;-70
2023/08/02 01:06:24;;;;;;;10.35;2.70;;;;;;;14.53;100.00;99955.41;5009443;28;20400;-71
2023/08/02 01:09:20;;;;;;;8.00;2.78;;;;;;;14.57;100.00;99952.38;5010089;28;20054;-71
2023/08/02 01:11:56;;;;;;;11.25;2.92;;;;;;;14.61;100.00;99957.38;5023210;28;20053;-71
2023/08/02 01:14:23;;;;;;;7.55;2.55;;;;;;;14.61;100.00;99957.38;5025257;28;20393;-71
2023/08/02 01:16:50;;;;;;;7.43;2.65;;;;;;;14.66;100.00;99960.47;5012241;28;20117;-70
2023/08/02 01:19:21;;;;;;;9.70;3.22;;;;;;;14.68;100.00;99963.06;5029195;28;20037;-71
2023/08/02 01:21:47;;;;;;;8.15;3.15;;;;;;;14.71;100.00;99958.13;5011263;28;20413;-71
2023/08/02 01:24:14;;;;;;;6.38;2.63;;;;;;;14.74;100.00;99957.81;5027198;28;20021;-71
2023/08/02 01:26:45;;;;;;;8.40;3.05;;;;;;;14.78;100.00;99956.47;5026170;28;20118;-70
2023/08/02 01:29:14;;;;;;;9.23;3.22;;;;;;;14.80;100.00;99948.94;5018373;28;20360;-71
2023/08/02 01:31:41;;;;;;;6.90;2.75;;;;;;;14.83;100.00;99945.06;5009421;28;20099;-71
2023/08/02 01:34:07;;;;;;;8.18;3.00;;;;;;;14.85;100.00;99948.47;4991369;28;20140;-70
2023/08/02 01:36:33;;;;;;;7.75;3.17;;;;;;;14.87;100.00;99949.16;5009120;28;20037;-71
2023/08/02 01:38:58;;;;;;;9.32;3.05;;;;;;;14.89;100.00;99949.88;5007769;28;20474;-70
2023/08/02 01:41:24;;;;;;;9.80;2.72;;;;;;;14.91;100.00;99942.34;5021779;28;20045;-70
2023/08/02 01:43:49;;;;;;;8.05;3.40;;;;;;;14.92;100.00;99937.72;5028510;28;20049;-71
2023/08/02 01:46:14;;;;;;;8.40;2.80;;;;;;;14.92;100.00;99924.91;5026872;28;20132;-71
2023/08/02 01:48:40;;;;;;;7.15;2.80;;;;;;;14.95;100.00;99921.81;5028906;28;20269;-71
2023/08/02 01:51:05;;;;;;;6.00;2.63;;;;;;;14.96;100.00;99919.94;5022666;28;20515;-71
2023/08/02 01:53:31;;;;;;;7.20;2.83;;;;;;;14.94;100.00;99914.63;5008914;28;20109;-71
2023/08/02 01:55:56;;;;;;;8.18;2.88;;;;;;;14.97;100.00;99913.47;5018217;28;20516;-71
2023/08/02 01:58:22;;;;;;;11.00;2.65;;;;;;;14.97;100.00;99913.47;5043301;28;20527;-70
2023/08/02 02:00:47;;;;;;;8.45;2.97;;;;;;;14.98;100.00;99906.97;5023262;28;20025;-71
2023/08/02 02:03:13;;;;;;;9.55;2.75;;;;;;;14.98;100.00;99896.88;5007355;28;20038;-71
2023/08/02 02:05:38;;;;;;;9.40;2.70;;;;;;;14.96;100.00;99882.47;5006904;28;20037;-70
2023/08/02 02:08:03;;;;;;;7.53;3.35;;;;;;;14.94;100.00;99881.78;5008642;28;20043;-71
2023/08/02 02:10:29;;;;;;;5.95;2.88;;;;;;;14.91;100.00;99879.34;5008471;28;20061;-72
2023/08/02 02:12:55;;;;;;;6.53;2.63;;;;;;;14.88;100.00;99863.25;5007677;28;20034;-70
2023/08/02 02:15:20;;;;;;;8.82;3.05;;;;;;;14.87;100.00;99868.88;5013254;28;20374;-71
2023/08/02 02:17:45;;;;;;;16.48;3.25;;;;;;;14.87;100.00;99863.41;5007840;28;20044;-70
2023/08/02 02:20:12;;;;;;;11.27;3.47;;;;;;;14.86;100.00;99857.06;5006611;28;20038;-72
2023/08/02 02:22:38;;;;;;;10.63;3.22;;;;;;;14.88;100.00;99855.06;5008420;28;20040;-70
2023/08/02 02:25:03;;;;;;;9.25;3.50;;;;;;;14.87;100.00;99836.88;5007379;28;20046;-71
2023/08/02 02:27:29;;;;;;;8.23;2.83;;;;;;;14.89;100.00;99825.78;5008069;28;20123;-71
2023/08/02 02:29:54;;;;;;;11.32;3.22;;;;;;;14.90;100.00;99831.09;5008466;28;20042;-71
2023/08/02 02:32:19;;;;;;;7.60;3.13;;;;;;;14.91;100.00;99812.75;5008566;28;20025;-70
2023/08/02 02:34:45;;;;;;;7.47;2.90;;;;;;;14.91;100.00;99810.88;5015575;28;20072;-70
2023/08/02 02:37:10;;;;;;;12.55;3.30;;;;;;;14.92;100.00;99818.09;5028194;28;20342;-71
2023/08/02 02:39:36;;;;;;;7.60;3.00;;;;;;;14.94;100.00;99824.25;5025859;28;20630;-71
2023/08/02 02:42:02;;;;;;;9.88;3.38;;;;;;;14.94;100.00;99813.31;5006631;28;20117;-71
2023/08/02 02:44:42;;;;;;;11.35;3.50;;;;;;;14.96;100.00;99808.50;5009630;28;20098;-70
2023/08/02 02:47:09;;;;;;;13.63;3.35;;;;;;;14.97;100.00;99804.75;5026750;28;20116;-71
2023/08/02 02:49:34;;;;;;;9.55;3.85;;;;;;;14.97;100.00;99807.50;5026791;28;20473;-70
2023/08/02 02:52:00;;;;;;;11.82;2.88;;;;;;;14.97;100.00;99810.25;5027640;28;20040;-71
2023/08/02 02:54:25;;;;;;;7.50;3.28;;;;;;;14.98;100.00;99811.94;5026614;28;20099;-72
2023/08/02 02:56:51;;;;;;;12.25;3.30;;;;;;;14.96;100.00;99811.25;5008101;28;20030;-71
2023/08/02 02:59:16;;;;;;;6.68;3.05;;;;;;;15.01;100.00;99799.78;5008006;28;20054;-71
2023/08/02 03:01:41;;;;;;;8.30;3.00;;;;;;;15.01;100.00;99799.78;5008248;28;20063;-72
2023/08/02 03:04:07;;;;;;;7.57;3.17;;;;;;;15.02;100.00;99796.06;4990175;28;20061;-72
2023/08/02 03:06:32;;;;;;;8.15;3.35;;;;;;;15.01;100.00;99781.50;5007702;28;20081;-71
2023/08/02 03:08:57;;;;;;;5.18;2.90;;;;;;;15.02;100.00;99776.88;5008117;28;20041;-72
2023/08/02 03:11:23;;;;;;;10.35;3.25;;;;;;;15.02;100.00;99761.31;5021851;28;20029;-71
2023/08/02 03:13:48;;;;;;;10.07;3.00;;;;;;;15.02;100.00;99744.00;5020305;28;20034;-71
2023/08/02 03:16:13;;;;;;;6.60;2.80;;;;;;;15.02;100.00;99735.78;5024968;28;20424;-71
2023/08/02 03:18:39;;;;;;;10.85;3.25;;;;;;;15.02;100.00;99730.31;5025430;28;20471;-71
2023/08/02 03:21:04;;;;;;;9.32;3.35;;;;;;;15.04;100.00;99720.03;5023448;28;20024;-70
2023/08/02 03:23:30;;;;;;;13.38;3.15;;;;;;;15.03;100.00;99719.19;5006544;28;20045;-71
2023/08/02 03:25:56;;;;;;;5.10;2.90;;;;;;;15.04;100.00;99717.28;5005509;28;20030;-71
2023/08/02 03:28:21;;;;;;;13.40;3.20;;;;;;;15.05;100.00;99710.78;4988649;28;20383;-71
2023/08/02 03:30:46;;;;;;;9.40;3.00;;;;;;;15.05;100.00;99711.63;5008412;28;20052;-71
2023/08/02 03:33:12;;;;;;;5.10;2.88;;;;;;;15.05;100.00;99708.91;5006392;28;20042;-72
2023/08/02 03:35:37;;;;;;;8.00;2.97;;;;;;;15.07;100.00;99705.16;5006080;28;20076;-71
2023/08/02 03:38:02;;;;;;;7.53;3.05;;;;;;;15.08;100.00;99709.59;5005945;28;20034;-71
2023/08/02 03:40:28;;;;;;;5.07;2.80;;;;;;;15.08;100.00;99706.88;5007534;28;20052;-70
2023/08/02 03:42:53;;;;;;;8.55;3.15;;;;;;;15.08;100.00;99699.50;5006517;28;20037;-71
2023/08/02 03:45:19;;;;;;;5.70;3.00;;;;;;;15.09;100.00;99690.25;5008105;28;20025;-71
2023/08/02 03:47:44;;;;;;;8.70;3.28;;;;;;;15.09;100.00;99676.56;5007597;28;20071;-71
2023/08/02 03:50:09;;;;;;;10.68;3.03;;;;;;;15.12;100.00;99675.38;5007268;28;20042;-72
2023/08/02 03:52:35;;;;;;;7.22;3.03;;;;;;;15.12;100.00;99672.63;5006208;28;20057;-71
2023/08/02 03:55:00;;;;;;;6.57;2.83;;;;;;;15.13;100.00;99664.22;5009242;28;20163;-71
2023/08/02 03:57:25;;;;;;;5.68;2.85;;;;;;;15.14;100.00;99659.59;5026515;28;20045;-71
2023/08/02 03:59:51;;;;;;;7.55;3.10;;;;;;;15.15;100.00;99655.84;5025889;28;20396;-70
2023/08/02 04:02:16;;;;;;;6.90;3.05;;;;;;;15.15;100.00;99656.69;5027783;28;20469;-71
2023/08/02 04:04:41;;;;;;;8.02;3.25;;;;;;;15.15;100.00;99640.25;5010465;28;20022;-71
2023/08/02 04:07:07;;;;;;;6.18;3.20;;;;;;;15.17;100.00;99638.22;5007536;28;20049;-71
2023/08/02 04:09:32;;;;;;;8.30;3.42;;;;;;;15.16;100.00;99635.66;5007570;28;20378;-70
2023/08/02 04:11:57;;;;;;;5.95;3.15;;;;;;;15.15;100.00;99617.47;5011430;28;20045;-71
2023/08/02 04:14:23;;;;;;;7.15;3.28;;;;;;;15.16;100.00;99627.44;5011150;28;20072;-70
2023/08/02 04:16:48;;;;;;;8.70;3.80;;;;;;;15.15;100.00;99610.13;5030058;28;20041;-71
2023/08/02 04:19:14;;;;;;;6.78;3.10;;;;;;;15.16;100.00;99608.25;5030540;28;20041;-71
2023/08/02 04:21:39;;;;;;;10.45;3.70;;;;;;;15.15;100.00;99601.91;5016549;28;20164;-72
2023/08/02 04:24:04;;;;;;;10.48;3.42;;;;;;;15.17;100.00;99608.06;5010301;28;20030;-71
2023/08/02 04:26:30;;;;;;;9.13;3.53;;;;;;;15.17;100.00;99597.13;5024804;28;20073;-71
2023/08/02 04:28:55;;;;;;;10.18;3.53;;;;;;;15.17;100.00;99588.03;5030287;28;20180;-71
2023/08/02 04:31:20;;;;;;;10.40;3.85;;;;;;;15.16;100.00;99578.13;5014704;28;20025;-70
2023/08/02 04:33:46;;;;;;;7.43;3.33;;;;;;;15.15;100.00;99565.44;5025821;28;20049;-71
2023/08/02 04:36:11;;;;;;;5.88;3.40;;;;;;;15.14;100.00;99561.84;5019695;28;20034;-72
2023/08/02 04:38:36;;;;;;;11.27;3.50;;;;;;;15.13;100.00;99549.19;5010433;28;20409;-71
2023/08/02 04:41:02;;;;;;;11.73;4.03;;;;;;;15.17;100.00;99555.16;5009371;28;20037;-72
2023/08/02 04:43:27;;;;;;;6.28;3.53;;;;;;;15.17;100.00;99545.06;5010322;28;20030;-70
2023/08/02 04:45:53;;;;;;;9.77;4.05;;;;;;;15.16;100.00;99535.16;5024022;28;20041;-71
2023/08/02 04:48:19;;;;;;;8.52;3.47;;;;;;;15.16;100.00;99526.94;5030767;28;20542;-70
2023/08/02 04:50:44;;;;;;;7.07;3.97;;;;;;;15.17;100.00;99520.41;5015853;28;20042;-71
2023/08/02 04:53:10;;;;;;;10.80;3.65;;;;;;;15.17;100.00;99503.97;5010121;28;20050;-71
2023/08/02 04:55:42;;;;;;;8.82;4.15;;;;;;;15.16;100.00;99507.75;5012137;28;20049;-72
2023/08/02 04:58:08;;;;;;;7.30;4.30;;;;;;;15.19;100.00;99504.63;5017600;28;20111;-71
2023/08/02 05:00:33;;;;;;;9.00;4.10;;;;;;;15.22;100.00;99497.97;5016865;28;20493;-71
2023/08/02 05:02:59;;;;;;;7.03;3.95;;;;;;;15.23;100.00;99485.97;5013212;28;20042;-71
2023/08/02 05:05:24;;;;;;;9.63;4.45;;;;;;;15.23;100.00;99485.97;5016040;28;20049;-71
2023/08/02 05:07:49;;;;;;;9.60;4.10;;;;;;;15.24;100.00;99494.00;5015009;28;20033;-71
2023/08/02 05:10:15;;;;;;;10.73;4.15;;;;;;;15.25;100.00;99484.78;5023213;28;20026;-72
2023/08/02 05:12:40;;;;;;;9.40;4.40;;;;;;;15.24;100.00;99472.09;5028602;28;20048;-71
2023/08/02 05:15:07;;;;;;;11.82;4.30;;;;;;;15.25;100.00;99483.94;5027079;28;20103;-71
2023/08/02 05:17:32;;;;;;;9.77;4.00;;;;;;;15.24;100.00;99477.56;5016243;28;20035;-71
2023/08/02 05:19:58;;;;;;;10.23;5.05;;;;;;;15.23;100.00;99466.78;5015897;28;20072;-71
2023/08/02 05:22:23;;;;;;;11.38;4.20;;;;;;;15.21;100.00;99453.28;5009010;28;20022;-71
2023/08/02 05:24:49;;;;;;;7.90;4.55;;;;;;;15.23;100.00;99459.44;5008479;28;20052;-71
2023/08/02 05:27:15;;;;;;;8.65;4.22;;;;;;;15.21;100.00;99453.28;5017633;28;20572;-72
2023/08/02 05:29:40;;;;;;;6.68;4.07;;;;;;;15.19;100.00;99444.38;5022379;28;20040;-72
2023/08/02 05:32:06;;;;;;;7.22;4.22;;;;;;;15.21;100.00;99436.84;5009582;28;20041;-72
2023/08/02 05:34:31;;;;;;;7.03;3.97;;;;;;;15.20;100.00;99431.50;5008911;28;20124;-72
2023/08/02 05:36:57;;;;;;;11.90;3.70;;;;;;;15.17;100.00;99415.44;5022305;28;20108;-73
2023/08/02 05:39:22;;;;;;;5.47;3.60;;;;;;;15.18;100.00;99409.78;5015917;28;20521;-72
2023/08/02 05:41:47;;;;;;;7.93;4.38;;;;;;;15.18;100.00;99408.94;5011823;28;20470;-72
2023/08/02 05:44:13;;;;;;;8.20;3.92;;;;;;;15.18;100.00;99403.47;5008926;28;20033;-72
2023/08/02 05:46:38;;;;;;;10.65;4.00;;;;;;;15.18;100.00;99398.81;5009547;28;20080;-73
2023/08/02 05:49:03;;;;;;;5.78;4.13;;;;;;;15.17;100.00;99390.78;5013113;28;20080;-73
2023/08/02 05:51:29;;;;;;;10.50;4.10;;;;;;;15.20;100.00;99384.94;5015006;28;20065;-72
2023/08/02 05:53:55;;;;;;;9.07;4.03;;;;;;;15.20;100.00;99382.19;5007790;28;20042;-72
2023/08/02 05:56:20;;;;;;;7.13;3.95;;;;;;;15.21;100.00;99376.56;5007866;28;20073;-71
2023/08/02 05:58:45;;;;;;;7.88;4.15;;;;;;;15.23;100.00;99368.16;5009427;28;20048;-72
2023/08/02 06:01:11;;;;;;;7.13;4.30;;;;;;;15.22;100.00;99359.09;5024458;28;20052;-72
2023/08/02 06:03:36;;;;;;;7.93;4.05;;;;;;;15.22;100.00;99342.66;5022510;28;20030;-71
2023/08/02 06:06:02;;;;;;;6.43;3.80;;;;;;;15.22;100.00;99336.31;5008627;28;20034;-71
2023/08/02 06:08:27;;;;;;;5.82;3.55;;;;;;;15.24;100.00;99329.63;5009113;28;20073;-72
2023/08/02 06:10:53;;;;;;;7.82;3.78;;;;;;;15.24;100.00;99324.13;5016573;28;20481;-71
2023/08/02 06:13:18;;;;;;;8.73;3.75;;;;;;;15.26;100.00;99313.88;5025133;28;20030;-71
2023/08/02 06:15:43;;;;;;;8.40;3.33;;;;;;;15.24;100.00;99304.97;5014715;28;20479;-71
2023/08/02 06:18:09;;;;;;;4.47;3.15;;;;;;;15.26;100.00;99299.31;5042023;28;20037;-72
2023/08/02 06:20:34;;;;;;;5.28;3.50;;;;;;;15.27;100.00;99301.03;5007284;28;20029;-72
2023/08/02 06:22:59;;;;;;;6.55;3.03;;;;;;;15.25;100.00;99295.72;5006693;28;20128;-72
2023/08/02 06:25:26;;;;;;;8.02;2.72;;;;;;;15.26;100.00;99277.41;5012333;28;20082;-72
2023/08/02 06:27:52;;;;;;;4.40;3.00;;;;;;;15.29;100.00;99277.03;5011450;28;20045;-72
2023/08/02 06:30:17;;;;;;;5.80;3.05;;;;;;;15.28;100.00;99276.16;5008854;28;20029;-72
2023/08/02 06:32:42;;;;;;;4.88;2.70;;;;;;;15.28;100.00;99267.09;5008063;28;20189;-72
2023/08/02 06:35:09;;;;;;;6.63;3.50;;;;;;;15.28;100.00;99258.88;5006867;28;20033;-72
2023/08/02 06:37:34;;;;;;;4.90;3.30;;;;;;;15.29;100.00;99255.09;5013373;28;20118;-72
2023/08/02 06:40:00;;;;;;;3.33;2.90;;;;;;;15.33;100.00;99242.75;5010027;28;20168;-71
2023/08/02 06:42:25;;;;;;;4.70;2.90;;;;;;;15.33;100.00;99237.28;5025988;28;20481;-72
2023/08/02 06:44:50;;;;;;;4.15;2.70;;;;;;;15.34;100.00;99233.53;5021119;28;20028;-71
2023/08/02 06:47:16;;;;;;;3.40;2.80;;;;;;;15.35;100.00;99231.63;5008313;28;20042;-72
2023/08/02 06:49:41;;;;;;;4.25;2.47;;;;;;;15.36;100.00;99214.16;5008189;28;20042;-71
2023/08/02 06:52:07;;;;;;;4.30;2.60;;;;;;;15.38;100.00;99210.16;5007492;28;20034;-71
2023/08/02 06:54:32;;;;;;;3.33;2.00;;;;;;;15.40;100.00;99201.78;5007782;28;20034;-72
2023/08/02 06:56:57;;;;;;;3.35;2.30;;;;;;;15.41;100.00;99203.47;5026516;28;20049;-71
2023/08/02 06:59:23;;;;;;;4.30;2.67;;;;;;;15.42;100.00;99194.22;5023514;28;20044;-71
2023/08/02 07:01:48;;;;;;;3.17;2.00;;;;;;;15.42;100.00;99188.75;5008380;28;20048;-71
2023/08/02 07:04:15;;;;;;;4.32;2.28;;;;;;;15.41;100.00;99176.94;5006536;28;20054;-71
2023/08/02 07:06:40;;;;;;;4.68;2.45;;;;;;;15.42;100.00;99172.28;5007523;28;20069;-71
2023/08/02 07:09:05;;;;;;;3.15;2.25;;;;;;;15.42;100.00;99166.81;5006989;28;20037;-71
2023/08/02 07:11:31;;;;;;;3.47;2.35;;;;;;;15.44;100.00;99164.75;5019886;28;20076;-71
2023/08/02 07:13:56;;;;;;;3.78;2.13;;;;;;;15.43;100.00;99150.19;5026699;28;20144;-71
2023/08/02 07:16:22;;;;;;;4.85;2.40;;;;;;;15.46;100.00;99154.44;5025234;28;20033;-71
2023/08/02 07:18:47;;;;;;;4.75;2.30;;;;;;;15.48;100.00;99147.75;5026918;28;20060;-71
2023/08/02 07:21:12;;;;;;;3.53;2.60;;;;;;;15.51;100.00;99157.50;5022376;28;20453;-71
2023/08/02 07:23:38;;;;;;;3.05;2.42;;;;;;;15.53;100.00;99147.22;5006097;28;20042;-71
2023/08/02 07:26:04;;;;;;;2.60;2.10;;;;;;;15.55;100.00;99142.38;5015186;28;20515;-71
2023/08/02 07:28:30;;;;;;;3.10;2.53;;;;;;;15.55;100.00;99135.00;5025168;28;20049;-71
2023/08/02 07:31:06;;;;;;;2.55;2.17;;;;;;;15.55;100.00;99139.66;5025780;28;20072;-71
2023/08/02 07:33:31;;;;;;;4.72;2.35;;;;;;;15.57;100.00;99134.81;5009371;28;20124;-71
2023/08/02 07:35:56;;;;;;;4.35;2.22;;;;;;;15.63;100.00;99133.25;5006712;28;20136;-71
2023/08/02 07:38:22;;;;;;;3.20;2.65;;;;;;;15.68;100.00;99125.34;5006753;28;20014;-71
2023/08/02 07:40:47;;;;;;;4.45;2.40;;;;;;;15.71;100.00;99119.47;5010223;28;20038;-72
2023/08/02 07:43:13;;;;;;;3.90;2.53;;;;;;;15.76;100.00;99112.41;5006490;28;20500;-71
2023/08/02 07:45:38;;;;;;;3.60;2.75;;;;;;;15.82;100.00;99106.16;5020716;28;20091;-72
2023/08/02 07:48:04;;;;;;;3.33;2.60;;;;;;;15.89;100.00;99100.75;5030578;28;20065;-71
2023/08/02 07:50:29;;;;;;;3.85;2.30;;;;;;;16.01;100.00;99091.03;5017124;28;20436;-71
2023/08/02 07:52:55;;;;;;;3.83;2.42;;;;;;;16.10;100.00;99090.94;5010390;28;20402;-71
2023/08/02 07:55:20;;;;;;;5.60;2.53;;;;;;;16.22;100.00;99083.91;5010214;28;20123;-71
2023/08/02 07:57:45;;;;;;;3.28;2.63;;;;;;;16.28;100.00;99075.78;5008512;28;20078;-71
2023/08/02 08:00:11;;;;;;;3.72;2.70;;;;;;;16.31;100.00;99066.31;5017947;28;20081;-71
2023/08/02 08:02:38;;;;;;;2.53;2.05;;;;;;;16.32;100.00;99059.81;5028770;28;20068;-71
2023/08/02 08:05:03;;;;;;;3.55;2.30;;;;;;;16.36;100.00;99063.84;5018306;28;20037;-71
2023/08/02 08:07:28;;;;;;;2.80;1.92;;;;;;;16.41;100.00;99068.75;5010234;28;20053;-72
2023/08/02 08:09:54;;;;;;;2.40;1.98;;;;;;;16.43;100.00;99067.53;5007234;28;20044;-71
2023/08/02 08:12:19;;;;;;;2.22;2.00;;;;;;;16.48;100.00;99056.81;5010340;28;20063;-71
2023/08/02 08:14:45;;;;;;;2.45;1.98;;;;;;;16.54;100.00;99060.69;5012411;28;20126;-71
2023/08/02 08:17:10;;;;;;;3.63;2.20;;;;;;;16.56;100.00;99055.88;5029339;28;20079;-71
2023/08/02 08:19:35;;;;;;;3.63;2.17;;;;;;;16.60;100.00;99051.69;5029034;28;20041;-71
2023/08/02 08:22:01;;;;;;;3.45;2.30;;;;;;;16.60;100.00;99046.19;5029573;28;20042;-70
2023/08/02 08:24:26;;;;;;;2.47;2.00;;;;;;;16.63;100.00;99051.28;5023939;28;20032;-71
2023/08/02 08:26:54;;;;;;;1.83;1.42;;;;;;;16.69;100.00;99041.41;5010538;28;20034;-71
2023/08/02 08:29:19;;;;;;;2.35;1.85;;;;;;;16.74;100.00;99039.84;5008280;28;20458;-71
2023/08/02 08:31:45;;;;;;;2.00;1.80;;;;;;;16.80;100.00;99038.19;5011159;28;20057;-71
2023/08/02 08:34:10;;;;;;;2.40;1.60;;;;;;;16.86;100.00;99034.66;4992730;28;20103;-71
2023/08/02 08:36:36;;;;;;;2.10;1.55;;;;;;;16.89;100.00;99041.66;5009604;28;20038;-71
2023/08/02 08:39:02;;;;;;;1.90;1.48;;;;;;;16.90;100.00;99046.97;5010132;28;20121;-71
2023/08/02 08:41:28;;;;;;;2.80;1.50;;;;;;;16.94;100.00;99040.03;5021226;28;20095;-71
2023/08/02 08:43:53;;;;;;;2.42;1.60;;;;;;;16.99;100.00;99039.44;5022263;28;20030;-71
2023/08/02 08:46:20;;;;;;;1.65;1.50;;;;;;;17.05;100.00;99038.63;5016967;28;20040;-71
2023/08/02 08:48:45;;;;;;;1.90;1.70;;;;;;;17.16;100.00;99035.38;5028857;28;20042;-71
2023/08/02 08:51:12;;;;;;;1.60;1.50;;;;;;;17.29;100.00;99032.72;5010800;28;20033;-71
2023/08/02 08:53:44;;;;;;;3.08;1.83;;;;;;;17.43;100.00;99024.56;5029542;28;20091;-71
2023/08/02 08:56:10;;;;;;;1.90;1.77;;;;;;;17.59;100.00;99024.28;5014668;28;20045;-71
2023/08/02 08:58:37;;;;;;;3.50;1.98;;;;;;;17.80;100.00;99015.13;5008150;28;20406;-71
2023/08/02 09:01:04;;;;;;;2.30;1.90;;;;;;;17.97;100.00;99023.91;5017822;28;20465;-71
2023/08/02 09:03:29;;;;;;;2.22;2.00;;;;;;;18.19;100.00;99014.50;5009837;28;20518;-72
2023/08/02 09:06:03;;;;;;;2.58;2.38;;;;;;;18.38;100.00;99018.38;5013000;28;20069;-71
2023/08/02 09:08:41;;;;;;;2.20;2.00;;;;;;;18.44;100.00;99011.19;5020808;28;20042;-72
2023/08/02 09:11:06;;;;;;;3.85;2.00;;;;;;;18.57;100.00;99006.56;5008321;28;20034;-71
2023/08/02 09:13:32;;;;;;;2.15;2.05;;;;;;;18.70;100.00;98994.78;5008868;28;20373;-71
2023/08/02 09:16:03;;;;;;;2.10;1.90;;;;;;;18.88;100.00;99005.16;5023078;28;20393;-71
2023/08/02 09:18:36;;;;;;;2.08;1.92;;;;;;;18.97;100.00;98986.53;5028457;28;20070;-71
2023/08/02 09:21:02;;;;;;;1.75;1.65;;;;;;;18.98;100.00;98988.22;5043166;28;20103;-71
2023/08/02 09:23:27;;;;;;;3.35;2.10;;;;;;;19.02;100.00;98984.81;5008106;28;20486;-71
2023/08/02 09:26:10;;;;;;;2.13;1.52;;;;;;;19.14;100.00;98982.28;5008494;28;20033;-71
2023/08/02 09:28:35;;;;;;;2.17;2.05;;;;;;;19.28;100.00;98970.19;5007640;28;20038;-71
2023/08/02 09:31:15;;;;;;;1.95;1.85;;;;;;;19.38;100.00;98972.53;5022050;28;20099;-72
2023/08/02 09:33:49;;;;;;;4.40;2.00;;;;;;;19.49;100.00;98960.84;5029013;28;20045;-72
2023/08/02 09:36:30;;;;;;;2.50;1.80;;;;;;;19.55;100.00;98959.13;5026951;28;20041;-72
2023/08/02 09:39:10;;;;;;;3.03;1.75;;;;;;;19.58;100.00;98959.56;5026912;28;20064;-72
2023/08/02 09:41:36;;;;;;;1.77;1.67;;;;;;;19.74;100.00;98968.47;5011785;28;20046;-71
2023/08/02 09:44:02;;;;;;;1.80;1.70;;;;;;;19.80;100.00;98960.16;5008955;28;20125;-71
2023/08/02 09:46:35;;;;;;;1.63;1.52;;;;;;;19.96;100.00;98956.06;5008873;28;20148;-71
2023/08/02 09:49:15;;;;;;;2.15;1.48;;;;;;;20.18;100.00;98951.06;5008301;28;20037;-72
2023/08/02 09:51:42;;;;;;;1.42;1.33;;;;;;;20.35;100.00;98956.94;5007291;28;20101;-72
2023/08/02 09:54:09;;;;;;;2.95;1.60;;;;;;;20.40;100.00;98937.78;5008411;28;20037;-72
2023/08/02 09:56:35;;;;;;;1.48;1.27;;;;;;;;;;5007510;28;20030;-72
2023/08/02 09:59:02;;;;;;;1.35;1.25;;;;;;;20.67;100.00;98934.91;5007824;28;20046;-72
2023/08/02 10:01:29;;;;;;;3.33;1.20;;;;;;;20.81;100.00;98929.03;5008788;28;20116;-72
2023/08/02 10:03:57;;;;;;;1.95;1.58;;;;;;;20.91;100.00;98944.28;5008549;28;20037;-72
2023/08/02 10:06:46;;;;;;;1.52;1.35;;;;;;;20.92;100.00;98940.44;5006620;28;20398;-72
2023/08/02 10:09:23;;;;;;;2.13;1.27;;;;;;;20.97;100.00;98946.97;5007749;28;20046;-72
2023/08/02 10:11:57;;;;;;;1.90;1.55;;;;;;;21.11;100.00;98937.50;5008898;28;20037;-73
2023/08/02 10:14:23;;;;;;;2.75;1.00;;;;;;;21.10;100.00;98929.44;5008293;28;20038;-72
2023/08/02 10:16:51;;;;;;;1.85;1.40;;;;;;;21.00;100.00;98940.16;5028349;28;20024;-72
2023/08/02 10:19:17;;;;;;;1.17;1.08;;;;;;;20.85;100.00;98927.53;5028383;28;20053;-73
2023/08/02 10:21:43;;;;;;;1.75;1.40;;;;;;;20.82;100.00;98910.53;5026757;28;20048;-72
2023/08/02 10:24:10;;;;;;;1.17;1.08;;;;;;;20.81;100.00;98887.59;5027414;28;20045;-72
2023/08/02 10:26:36;;;;;;;1.27;1.17;;;;;;;20.96;100.00;98898.28;5010618;28;20473;-72
2023/08/02 10:29:02;;;;;;;1.60;1.50;;;;;;;21.07;100.00;98886.47;5006710;28;20040;-72
2023/08/02 10:31:29;;;;;;;2.60;1.33;;;;;;;21.28;100.00;98888.00;5024887;28;20041;-72
2023/08/02 10:33:54;;;;;;;4.82;1.33;;;;;;;21.42;100.00;98893.44;5027426;28;20045;-72
2023/08/02 10:36:20;;;;;;;1.65;1.40;;;;;;;21.41;100.00;98878.75;5008073;28;20052;-72
2023/08/02 10:38:47;;;;;;;1.30;1.20;;;;;;;21.30;99.00;98882.22;5027858;28;20378;-72
2023/08/02 10:41:14;;;;;;;2.15;1.30;;;;;;;21.28;99.92;98879.69;5031087;28;20488;-72
2023/08/02 10:43:52;;;;;;;1.55;1.38;;;;;;;21.21;99.92;98865.06;5027257;28;20029;-72
2023/08/02 10:46:24;;;;;;;1.83;1.10;;;;;;;21.04;100.00;98870.38;5026891;28;20053;-72
2023/08/02 10:48:50;;;;;;;2.95;1.20;;;;;;;20.99;99.53;98861.06;5019988;28;20053;-72
2023/08/02 10:51:32;;;;;;;1.55;1.23;;;;;;;20.91;98.37;98873.25;5006261;28;20359;-72
2023/08/02 10:54:16;;;;;;;1.70;1.48;;;;;;;20.83;99.89;98874.38;5012710;28;20037;-72
2023/08/02 10:56:51;;;;;;;2.75;1.52;;;;;;;20.65;100.00;98879.84;5021919;28;20661;-72
2023/08/02 10:59:22;;;;;;;2.55;1.52;;;;;;;20.48;100.00;98864.91;5012857;28;20068;-72
2023/08/02 11:01:58;;;;;;;2.45;1.55;;;;;;;20.39;100.00;98858.75;5007773;28;20046;-71
2023/08/02 11:04:25;;;;;;;2.72;1.70;;;;;;;20.38;100.00;98838.59;5007293;28;20441;-71
2023/08/02 11:06:50;;;;;;;3.67;1.80;;;;;;;20.42;100.00;98841.72;5007724;28;20049;-71
2023/08/02 11:09:16;;;;;;;4.13;1.50;;;;;;;20.45;100.00;98833.00;5005803;28;20046;-71
2023/08/02 11:11:41;;;;;;;2.13;1.80;;;;;;;20.39;100.00;98845.78;5021789;28;20544;-71
2023/08/02 11:14:07;;;;;;;1.67;1.58;;;;;;;20.37;100.00;98845.16;5025349;28;20025;-72
2023/08/02 11:16:40;;;;;;;5.25;1.98;;;;;;;20.25;100.00;98852.47;5025565;28;20037;-71
2023/08/02 11:19:12;;;;;;;2.08;1.60;;;;;;;20.11;100.00;98862.75;5025938;28;20048;-72
2023/08/02 11:21:38;;;;;;;2.53;2.15;;;;;;;20.02;100.00;98860.50;5007373;28;20353;-72